Time;durP1;ratioP1;P1;durP2;ratioP2;P2;SDS_P1;SDS_P2;PMS_P1;PMS_P2;Temp;Humidity;BMP_temperature;BMP_pressure;BME280_temperature;BME280_humidity;BME280_pressure;Samples;Min_cycle;Max_cycle;Signal;HPM_P1;HPM_P2
2023/10/08 00:00:53;;;;;;;8.23;5.30;;;;;;;22.18;48.91;101518.44;680145;29;1331;-92
2023/10/08 00:01:14;;;;;;;10.23;5.13;;;;;;;22.06;48.96;101500.84;677200;29;1206;-92
2023/10/08 00:01:35;;;;;;;11.20;5.10;;;;;;;22.10;49.24;101518.53;685229;28;1039;-92
2023/10/08 00:01:56;;;;;;;11.33;4.70;;;;;;;22.02;49.09;101492.00;688168;28;1428;-91
2023/10/08 00:02:22;;;;;;;10.38;5.20;;;;;;;22.13;48.90;101505.22;684057;28;1183;-91
2023/10/08 00:02:43;;;;;;;9.10;5.35;;;;;;;22.13;49.17;101509.66;682447;29;1216;-92
2023/10/08 00:03:05;;;;;;;7.82;5.35;;;;;;;22.12;49.18;101506.09;680058;29;1223;-94
2023/10/08 00:03:29;;;;;;;7.15;4.93;;;;;;;22.18;48.98;101513.13;685324;28;1374;-91
2023/10/08 00:03:50;;;;;;;7.00;4.70;;;;;;;22.17;49.29;101528.22;684702;28;1452;-94
2023/10/08 00:04:11;;;;;;;7.68;4.80;;;;;;;22.15;49.10;101524.72;677662;29;1581;-95
2023/10/08 00:04:39;;;;;;;7.45;4.97;;;;;;;22.09;49.22;101508.81;682998;28;1181;-94
2023/10/08 00:05:01;;;;;;;7.78;4.97;;;;;;;22.21;49.03;101517.56;688099;28;1228;-94
2023/10/08 00:05:22;;;;;;;7.55;4.80;;;;;;;22.14;49.13;101522.91;682945;28;1204;-91
2023/10/08 00:05:43;;;;;;;6.65;4.30;;;;;;;22.18;49.03;101522.00;679835;29;1265;-92
2023/10/08 00:06:06;;;;;;;7.05;4.60;;;;;;;22.14;49.12;101508.75;680018;29;1268;-91
2023/10/08 00:06:27;;;;;;;9.60;5.07;;;;;;;22.17;49.15;101517.59;679728;29;1322;-95
2023/10/08 00:06:52;;;;;;;9.85;5.30;;;;;;;22.14;48.94;101524.72;677649;29;1263;-93
2023/10/08 00:07:13;;;;;;;9.32;4.90;;;;;;;22.24;48.91;101528.19;679999;29;1164;-93
2023/10/08 00:07:34;;;;;;;7.35;4.78;;;;;;;22.20;49.05;101529.97;682283;29;1332;-95
2023/10/08 00:07:55;;;;;;;7.43;4.57;;;;;;;22.09;49.23;101518.53;680714;28;1523;-93
2023/10/08 00:08:17;;;;;;;7.07;4.32;;;;;;;22.11;49.16;101527.38;679663;29;1211;-90
2023/10/08 00:08:38;;;;;;;10.20;5.10;;;;;;;22.10;49.34;101529.16;681883;29;1183;-92
2023/10/08 00:09:08;;;;;;;9.80;5.20;;;;;;;22.13;49.22;101531.78;682728;29;1307;-93
2023/10/08 00:09:35;;;;;;;11.68;5.43;;;;;;;22.20;49.08;101532.63;680046;29;1200;-93
2023/10/08 00:09:55;;;;;;;8.93;4.60;;;;;;;22.13;49.12;101514.97;682710;29;1209;-92
2023/10/08 00:10:16;;;;;;;7.40;4.50;;;;;;;22.20;48.93;101522.00;685042;28;1153;-92
2023/10/08 00:10:39;;;;;;;6.90;4.45;;;;;;;22.25;48.96;101529.94;680132;29;1143;-93
2023/10/08 00:11:07;;;;;;;7.70;5.00;;;;;;;22.12;49.06;101519.41;684409;28;1208;-92
2023/10/08 00:11:31;;;;;;;7.57;4.80;;;;;;;22.15;49.20;101513.19;690625;28;1329;-93
2023/10/08 00:11:54;;;;;;;7.60;5.28;;;;;;;22.21;49.13;101531.75;680188;29;1349;-92
2023/10/08 00:12:16;;;;;;;7.28;5.15;;;;;;;22.19;49.22;101525.53;687915;28;1243;-92
2023/10/08 00:12:37;;;;;;;8.23;5.20;;;;;;;22.22;48.97;101519.31;687992;28;1207;-92
2023/10/08 00:12:58;;;;;;;10.43;5.03;;;;;;;22.19;49.05;101521.09;685393;28;1228;-93
2023/10/08 00:13:18;;;;;;;10.43;4.75;;;;;;;22.16;49.09;101521.16;685136;28;1225;-93
2023/10/08 00:13:42;;;;;;;11.20;4.90;;;;;;;22.05;49.53;101507.06;685487;28;1308;-93
2023/10/08 00:14:08;;;;;;;10.30;4.65;;;;;;;22.07;49.46;101518.53;687883;28;1386;-92
2023/10/08 00:14:29;;;;;;;11.02;5.20;;;;;;;22.08;49.62;101523.00;680018;29;1108;-92
2023/10/08 00:15:07;;;;;;;9.95;5.45;;;;;;;22.08;49.49;101512.34;682789;29;1222;-94
2023/10/08 00:15:28;;;;;;;8.85;5.20;;;;;;;22.11;49.35;101514.09;685094;28;1401;-90
2023/10/08 00:15:55;;;;;;;10.00;5.10;;;;;;;22.10;49.06;101504.34;682236;29;1311;-91
2023/10/08 00:16:21;;;;;;;11.77;5.38;;;;;;;22.17;49.26;101516.69;677030;29;1295;-92
2023/10/08 00:16:42;;;;;;;10.90;5.57;;;;;;;22.11;49.51;101522.06;685431;28;1295;-93
2023/10/08 00:17:04;;;;;;;9.70;5.10;;;;;;;22.08;49.38;101522.09;688023;28;1201;-91
2023/10/08 00:17:25;;;;;;;10.18;5.30;;;;;;;22.09;49.50;101524.75;679892;28;1910;-93
2023/10/08 00:17:49;;;;;;;11.88;4.97;;;;;;;22.04;49.43;101515.91;682792;28;1228;-92
2023/10/08 00:18:12;;;;;;;10.68;5.22;;;;;;;22.00;49.38;101519.53;685038;28;1089;-92
2023/10/08 00:18:33;;;;;;;10.52;5.15;;;;;;;22.03;49.51;101530.09;679879;29;1375;-93
2023/10/08 00:18:58;;;;;;;9.00;5.30;;;;;;;22.03;49.45;101531.00;682517;29;1347;-92
2023/10/08 00:19:21;;;;;;;8.80;4.63;;;;;;;22.07;49.38;101537.16;687783;28;1373;-92
2023/10/08 00:19:45;;;;;;;10.35;4.72;;;;;;;22.09;49.71;101535.38;682112;29;1397;-92
2023/10/08 00:20:06;;;;;;;8.77;4.70;;;;;;;22.03;49.58;101535.41;682650;28;1315;-92
2023/10/08 00:20:35;;;;;;;8.18;4.78;;;;;;;22.12;49.48;101545.13;685144;28;1199;-92
2023/10/08 00:21:15;;;;;;;6.63;4.63;;;;;;;22.08;49.29;101533.63;681014;28;1269;-94
2023/10/08 00:21:38;;;;;;;6.95;4.68;;;;;;;22.08;49.63;101544.25;680154;29;1039;-93
2023/10/08 00:22:04;;;;;;;8.95;5.20;;;;;;;22.08;49.57;101536.28;685932;28;1213;-93
2023/10/08 00:22:25;;;;;;;9.32;5.18;;;;;;;22.03;49.33;101540.75;683049;28;1217;-92
2023/10/08 00:22:47;;;;;;;10.27;5.40;;;;;;;22.08;49.58;101538.94;681114;28;1237;-93
2023/10/08 00:23:09;;;;;;;9.27;5.40;;;;;;;22.05;49.46;101533.63;680475;29;1307;-91
2023/10/08 00:23:30;;;;;;;7.72;5.15;;;;;;;22.06;49.36;101535.38;682437;28;1132;-92
2023/10/08 00:23:59;;;;;;;7.78;4.90;;;;;;;22.06;49.52;101538.03;680962;29;1264;-93
2023/10/08 00:24:26;;;;;;;7.30;4.50;;;;;;;22.04;49.68;101534.53;680594;29;1380;-91
2023/10/08 00:24:49;;;;;;;10.38;5.28;;;;;;;22.05;49.61;101531.88;682816;29;1247;-93
2023/10/08 00:25:11;;;;;;;10.48;5.50;;;;;;;22.00;49.37;101530.16;683224;29;1393;-93
2023/10/08 00:25:34;;;;;;;7.43;5.30;;;;;;;22.04;49.51;101532.75;680228;29;1284;-92
2023/10/08 00:25:55;;;;;;;6.47;4.93;;;;;;;22.05;49.46;101537.19;680513;28;1316;-93
2023/10/08 00:26:18;;;;;;;6.28;4.90;;;;;;;22.08;49.51;101543.34;677640;29;1343;-92
2023/10/08 00:26:41;;;;;;;7.50;5.00;;;;;;;22.02;49.74;101537.19;680547;29;1399;-92
2023/10/08 00:27:03;;;;;;;9.68;5.40;;;;;;;22.02;49.51;101541.63;683283;29;1229;-92
2023/10/08 00:27:24;;;;;;;11.88;5.18;;;;;;;22.04;49.54;101542.50;678796;28;1334;-91
2023/10/08 00:27:45;;;;;;;11.82;5.18;;;;;;;21.94;49.79;101525.72;683226;28;1317;-92
2023/10/08 00:28:10;;;;;;;8.18;4.80;;;;;;;22.04;49.71;101539.84;683218;28;1235;-92
2023/10/08 00:28:31;;;;;;;7.65;4.78;;;;;;;22.03;49.58;101538.09;687782;28;1297;-91
2023/10/08 00:28:59;;;;;;;9.02;5.30;;;;;;;22.00;49.72;101541.63;679997;29;1216;-92
2023/10/08 00:29:22;;;;;;;9.40;5.60;;;;;;;22.02;49.56;101538.97;680201;28;1327;-90
2023/10/08 00:29:43;;;;;;;7.93;5.22;;;;;;;22.00;49.71;101541.63;683406;29;945;-93
2023/10/08 00:30:13;;;;;;;7.88;5.07;;;;;;;22.02;49.69;101544.28;682935;29;1450;-92
2023/10/08 00:30:34;;;;;;;6.97;4.63;;;;;;;22.04;49.73;101548.72;685839;28;1291;-92
2023/10/08 00:30:55;;;;;;;8.20;4.90;;;;;;;22.01;49.66;101537.22;688577;28;1309;-92
2023/10/08 00:31:18;;;;;;;8.20;4.90;;;;;;;22.02;49.69;101536.31;683075;28;1176;-93
2023/10/08 00:31:40;;;;;;;7.95;4.95;;;;;;;22.02;49.58;101541.63;683063;29;1278;-90
2023/10/08 00:32:11;;;;;;;7.93;4.97;;;;;;;22.09;49.87;101551.31;680554;29;1112;-91
2023/10/08 00:32:32;;;;;;;7.50;4.60;;;;;;;22.04;49.62;101540.72;683348;28;1252;-92
2023/10/08 00:32:52;;;;;;;7.60;4.53;;;;;;;22.04;49.58;101545.16;688061;28;1168;-92
2023/10/08 00:33:14;;;;;;;7.63;4.40;;;;;;;22.04;49.76;101547.81;685497;28;1250;-92
2023/10/08 00:33:36;;;;;;;10.27;4.85;;;;;;;22.06;49.81;101554.00;682854;29;998;-92
2023/10/08 00:33:57;;;;;;;10.77;5.10;;;;;;;22.00;49.87;101548.75;685928;28;1309;-92
2023/10/08 00:38:20;;;;;;;9.88;4.90;;;;;;;22.17;49.44;101561.88;689023;28;691;-94
2023/10/08 00:38:44;;;;;;;10.95;4.90;;;;;;;22.21;49.45;101570.72;683276;29;1216;-94
2023/10/08 00:39:08;;;;;;;10.57;5.00;;;;;;;22.08;49.20;101538.94;677872;29;1393;-91
2023/10/08 00:39:34;;;;;;;8.07;5.07;;;;;;;22.14;49.22;101560.13;683097;29;1314;-92
2023/10/08 00:39:56;;;;;;;9.52;5.25;;;;;;;22.08;49.37;101554.88;681592;29;1295;-92
2023/10/08 00:40:21;;;;;;;9.18;5.30;;;;;;;22.13;49.45;101557.50;685715;28;1360;-92
2023/10/08 00:40:48;;;;;;;10.27;5.38;;;;;;;22.03;49.69;101562.91;683241;29;1304;-92
2023/10/08 00:41:12;;;;;;;8.55;5.05;;;;;;;22.04;49.73;101556.69;688636;28;1318;-93
2023/10/08 00:41:34;;;;;;;8.50;5.05;;;;;;;22.08;49.75;101564.63;688522;28;1354;-93
2023/10/08 00:41:58;;;;;;;8.82;5.22;;;;;;;22.10;49.51;101569.03;680775;29;1232;-92
2023/10/08 00:42:19;;;;;;;10.35;5.40;;;;;;;22.13;49.54;101569.00;680428;29;1206;-92
2023/10/08 00:42:46;;;;;;;9.88;5.38;;;;;;;22.02;49.66;101558.44;682889;28;1339;-92
2023/10/08 00:43:10;;;;;;;7.75;5.20;;;;;;;22.07;49.58;101560.19;680268;29;1321;-92
2023/10/08 00:43:33;;;;;;;8.10;5.40;;;;;;;22.10;49.77;101565.47;682913;28;1454;-92
2023/10/08 00:43:59;;;;;;;8.38;5.43;;;;;;;22.06;49.56;101559.31;682851;28;1328;-92
2023/10/08 00:44:23;;;;;;;10.43;5.05;;;;;;;22.13;49.83;101566.34;685457;28;1354;-91
2023/10/08 00:44:54;;;;;;;14.23;4.97;;;;;;;22.10;49.69;101569.03;683159;28;1287;-92
2023/10/08 00:45:16;;;;;;;14.93;5.57;;;;;;;22.14;49.67;101573.41;693923;28;1299;-93
2023/10/08 00:45:42;;;;;;;9.60;5.50;;;;;;;22.19;49.76;101579.59;685680;28;1112;-92
2023/10/08 00:46:18;;;;;;;10.43;5.65;;;;;;;22.10;49.69;101568.13;682774;29;1137;-91
2023/10/08 00:46:47;;;;;;;13.95;6.00;;;;;;;22.04;49.58;101559.34;685484;28;1267;-91
2023/10/08 00:47:12;;;;;;;11.68;5.32;;;;;;;21.99;49.61;101569.13;685785;28;1237;-94
2023/10/08 00:47:39;;;;;;;7.07;4.78;;;;;;;22.09;49.65;101575.25;688454;28;1207;-92
2023/10/08 00:48:01;;;;;;;7.70;4.78;;;;;;;22.10;49.51;101570.78;683191;29;1229;-93
2023/10/08 00:48:28;;;;;;;7.78;4.80;;;;;;;22.13;49.65;101573.44;685607;28;1302;-92
2023/10/08 00:48:54;;;;;;;6.63;4.50;;;;;;;22.07;49.66;101574.34;685711;28;1358;-92
2023/10/08 00:49:26;;;;;;;8.98;4.90;;;;;;;22.06;49.81;101572.59;685599;28;1258;-93
2023/10/08 00:50:02;;;;;;;9.63;5.00;;;;;;;22.00;49.97;101572.66;685312;28;1212;-91
2023/10/08 00:50:31;;;;;;;7.80;4.75;;;;;;;22.03;49.69;101586.81;683172;28;1370;-91
2023/10/08 00:50:52;;;;;;;8.77;4.97;;;;;;;21.95;50.10;101569.16;684907;28;1258;-92
2023/10/08 00:51:45;;;;;;;8.65;5.20;;;;;;;22.01;49.84;101566.44;683393;28;1338;-93
2023/10/08 00:52:38;;;;;;;8.57;5.10;;;;;;;22.05;49.65;101570.84;685226;28;1057;-90
2023/10/08 00:53:10;;;;;;;10.25;5.57;;;;;;;22.02;49.97;101570.88;688622;28;1275;-93
2023/10/08 00:53:38;;;;;;;12.23;5.70;;;;;;;21.95;50.06;101564.69;683061;29;1466;-94
2023/10/08 00:54:10;;;;;;;10.52;5.32;;;;;;;22.00;49.91;101567.34;680675;29;1188;-92
2023/10/08 00:54:46;;;;;;;7.38;4.70;;;;;;;21.90;50.28;101563.88;680485;29;1323;-92
2023/10/08 00:55:09;;;;;;;9.05;4.80;;;;;;;21.94;49.90;101556.75;683322;28;1180;-91
2023/10/08 00:55:33;;;;;;;10.85;4.93;;;;;;;22.05;49.88;101566.41;675159;29;1241;-91
2023/10/08 00:56:04;;;;;;;12.15;5.22;;;;;;;22.00;49.80;101546.09;681370;29;891;-90
2023/10/08 00:57:11;;;;;;;7.93;5.20;;;;;;;22.09;49.79;101561.97;682836;28;1257;-92
2023/10/08 00:57:35;;;;;;;7.75;5.00;;;;;;;22.04;49.76;101553.13;677834;29;1249;-91
2023/10/08 00:57:58;;;;;;;7.65;5.10;;;;;;;22.07;49.89;101554.88;685846;28;1360;-92
2023/10/08 00:58:24;;;;;;;8.27;5.25;;;;;;;22.07;49.78;101562.84;685425;28;1316;-92
2023/10/08 00:58:52;;;;;;;10.00;5.32;;;;;;;22.07;49.93;101555.75;675327;29;1352;-92
2023/10/08 00:59:16;;;;;;;11.63;5.00;;;;;;;21.97;50.05;101557.63;683024;29;1211;-93
2023/10/08 00:59:45;;;;;;;11.15;5.15;;;;;;;22.05;49.95;101558.44;685849;28;1218;-93
2023/10/08 01:00:15;;;;;;;7.93;5.10;;;;;;;22.05;49.97;101565.53;686683;28;1198;-94
2023/10/08 01:00:40;;;;;;;7.45;5.10;;;;;;;22.07;49.90;101562.84;688221;28;1263;-90
2023/10/08 01:01:03;;;;;;;8.15;5.03;;;;;;;22.03;49.69;101564.66;680527;28;1330;-92
2023/10/08 01:01:23;;;;;;;8.75;4.95;;;;;;;22.01;49.95;101562.00;683217;29;1256;-92
2023/10/08 01:01:46;;;;;;;9.33;4.93;;;;;;;22.03;49.72;101562.91;677924;29;1171;-89
2023/10/08 01:02:14;;;;;;;9.32;4.80;;;;;;;22.02;49.81;101554.94;685707;28;1366;-91
2023/10/08 01:02:48;;;;;;;10.40;5.10;;;;;;;22.01;49.80;101553.16;683032;29;1201;-91
2023/10/08 01:03:14;;;;;;;9.13;4.90;;;;;;;22.01;49.96;101556.69;682828;28;1237;-90
2023/10/08 01:03:36;;;;;;;8.45;4.90;;;;;;;22.05;49.97;101566.41;683145;28;1208;-91
2023/10/08 01:03:56;;;;;;;8.48;4.93;;;;;;;22.08;50.08;101564.63;678142;28;1367;-89
2023/10/08 01:04:19;;;;;;;8.40;4.90;;;;;;;22.12;49.70;101571.69;685796;28;1397;-91
2023/10/08 01:04:40;;;;;;;9.23;5.22;;;;;;;22.08;49.79;101556.66;680603;29;1259;-92
2023/10/08 01:05:00;;;;;;;7.90;5.20;;;;;;;22.04;49.98;101559.34;678428;29;1213;-92
2023/10/08 01:05:25;;;;;;;7.82;5.38;;;;;;;22.07;49.86;101563.72;677736;29;1331;-91
2023/10/08 01:05:46;;;;;;;8.60;5.40;;;;;;;22.01;50.12;101563.78;683314;29;1359;-92
2023/10/08 01:06:10;;;;;;;10.60;5.67;;;;;;;22.02;50.00;101565.56;683057;28;1124;-91
2023/10/08 01:06:31;;;;;;;10.35;5.55;;;;;;;22.02;49.86;101561.09;683087;29;1328;-91
2023/10/08 01:07:01;;;;;;;9.15;5.10;;;;;;;21.96;50.13;101557.63;685712;28;1243;-91
2023/10/08 01:07:23;;;;;;;8.10;4.68;;;;;;;21.94;50.06;101565.59;688518;28;1334;-92
2023/10/08 01:07:48;;;;;;;9.25;4.93;;;;;;;21.94;50.23;101564.72;683267;28;1256;-90
2023/10/08 01:08:12;;;;;;;11.00;5.30;;;;;;;21.94;50.07;101562.06;683014;28;1274;-91
2023/10/08 01:08:36;;;;;;;10.40;5.43;;;;;;;22.04;50.03;101569.97;685636;28;1308;-91
2023/10/08 01:09:07;;;;;;;7.97;4.95;;;;;;;21.98;49.93;101569.13;683278;29;1310;-91
2023/10/08 01:09:34;;;;;;;9.15;5.20;;;;;;;21.97;49.81;101568.25;677842;29;1377;-92
2023/10/08 01:10:10;;;;;;;8.02;5.22;;;;;;;22.00;50.00;101577.97;682652;28;1355;-90
2023/10/08 01:10:30;;;;;;;9.13;4.68;;;;;;;21.98;50.13;101575.31;688238;28;1291;-91
2023/10/08 01:11:00;;;;;;;9.75;4.70;;;;;;;21.96;50.02;101576.22;685786;28;1153;-91
2023/10/08 01:12:15;;;;;;;8.98;5.07;;;;;;;21.99;49.95;101584.16;680246;29;1382;-91
2023/10/08 01:12:44;;;;;;;8.88;5.30;;;;;;;21.95;50.37;101579.78;684249;28;1380;-90
2023/10/08 01:13:06;;;;;;;7.70;4.90;;;;;;;22.00;50.04;101588.63;684724;28;1205;-89
2023/10/08 01:13:35;;;;;;;7.10;4.70;;;;;;;21.99;50.15;101587.72;680224;29;994;-91
2023/10/08 01:13:58;;;;;;;13.45;5.03;;;;;;;21.95;50.13;101585.97;685883;28;1308;-93
2023/10/08 01:14:21;;;;;;;13.18;5.00;;;;;;;21.87;50.30;101580.72;682136;29;1336;-91
2023/10/08 01:14:42;;;;;;;9.32;5.10;;;;;;;21.93;50.39;101592.19;683148;29;1218;-91
2023/10/08 01:15:16;;;;;;;9.13;5.68;;;;;;;21.93;50.35;101582.44;688414;28;1333;-90
2023/10/08 01:15:37;;;;;;;12.30;5.65;;;;;;;21.86;50.35;101586.91;690707;28;1342;-90
2023/10/08 01:15:58;;;;;;;12.23;5.32;;;;;;;21.87;50.39;101586.03;683256;28;1223;-90
2023/10/08 01:16:18;;;;;;;9.60;5.13;;;;;;;21.89;50.42;101586.03;688591;28;1261;-91
2023/10/08 01:16:41;;;;;;;10.80;5.90;;;;;;;21.89;50.19;101586.88;685711;28;1324;-90
2023/10/08 01:17:02;;;;;;;10.70;5.90;;;;;;;21.90;50.51;101591.31;683116;28;1373;-92
2023/10/08 01:17:25;;;;;;;10.15;5.43;;;;;;;21.88;50.31;101587.78;685297;28;1978;-92
2023/10/08 01:17:59;;;;;;;12.02;5.20;;;;;;;21.89;50.25;101578.06;683117;28;1338;-91
2023/10/08 01:18:29;;;;;;;11.13;5.25;;;;;;;21.83;50.32;101583.41;681881;29;1238;-92
2023/10/08 01:18:54;;;;;;;7.88;4.93;;;;;;;21.86;50.33;101584.25;685555;28;1749;-91
2023/10/08 01:19:20;;;;;;;7.72;5.00;;;;;;;21.86;50.35;101586.91;680428;29;1373;-91
2023/10/08 01:19:42;;;;;;;7.97;5.00;;;;;;;21.93;50.12;101597.50;688451;28;1364;-92
2023/10/08 01:20:09;;;;;;;8.50;4.63;;;;;;;21.82;50.30;101585.16;682989;28;1335;-91
2023/10/08 01:20:33;;;;;;;9.70;4.90;;;;;;;21.87;50.38;101594.00;680422;28;1262;-92
2023/10/08 01:20:55;;;;;;;10.93;5.65;;;;;;;21.75;50.74;101596.72;685454;28;1224;-91
2023/10/08 01:21:33;;;;;;;11.23;5.97;;;;;;;21.82;50.78;101601.09;680354;29;1398;-92
2023/10/08 01:21:58;;;;;;;12.07;5.60;;;;;;;21.91;50.59;101600.16;683022;28;1229;-92
2023/10/08 01:22:21;;;;;;;10.23;5.43;;;;;;;21.81;50.59;101599.34;683337;28;1323;-90
2023/10/08 01:22:42;;;;;;;8.77;5.40;;;;;;;21.86;50.69;101602.84;677901;29;1268;-92
2023/10/08 01:23:09;;;;;;;8.02;5.30;;;;;;;21.90;50.63;101603.72;682200;28;1464;-91
2023/10/08 01:23:31;;;;;;;7.43;5.30;;;;;;;21.89;50.45;101608.13;685520;28;1581;-91
2023/10/08 01:23:54;;;;;;;9.75;5.35;;;;;;;21.88;50.53;101595.75;681136;28;1272;-90
2023/10/08 01:24:17;;;;;;;11.60;5.45;;;;;;;21.85;50.43;101590.47;680990;28;1180;-90
2023/10/08 01:24:38;;;;;;;11.68;5.32;;;;;;;21.89;50.58;101597.50;677941;29;1280;-90
2023/10/08 01:25:01;;;;;;;10.87;5.47;;;;;;;21.94;50.45;101596.63;683090;29;1162;-90
2023/10/08 01:25:24;;;;;;;10.38;5.65;;;;;;;21.94;50.32;101593.97;679840;29;1259;-90
2023/10/08 01:25:50;;;;;;;8.48;5.50;;;;;;;21.97;50.39;101601.91;680196;29;1219;-91
2023/10/08 01:26:12;;;;;;;9.05;5.30;;;;;;;21.94;50.63;101599.28;683019;29;1233;-91
2023/10/08 01:26:39;;;;;;;9.18;5.30;;;;;;;21.83;50.62;101592.22;683042;28;1270;-90
2023/10/08 01:26:59;;;;;;;8.40;5.35;;;;;;;21.83;50.66;101584.25;679737;29;1406;-92
2023/10/08 01:27:24;;;;;;;8.30;5.45;;;;;;;21.90;50.67;101593.97;678289;29;1331;-91
2023/10/08 01:27:46;;;;;;;8.30;5.50;;;;;;;21.97;50.50;101599.25;682956;29;1225;-92
2023/10/08 01:28:45;;;;;;;13.80;5.80;;;;;;;21.89;50.30;101597.50;678018;29;1311;-92
2023/10/08 01:29:11;;;;;;;12.10;5.30;;;;;;;21.82;50.38;101598.44;677869;29;1301;-91
2023/10/08 01:29:32;;;;;;;10.82;5.20;;;;;;;21.93;50.41;101611.66;685680;28;1384;-90
2023/10/08 01:29:53;;;;;;;9.73;5.50;;;;;;;22.01;50.41;101628.44;685781;28;1155;-93
2023/10/08 01:30:20;;;;;;;10.40;6.10;;;;;;;22.03;50.34;101621.38;682980;29;1301;-91
2023/10/08 01:30:47;;;;;;;9.73;5.93;;;;;;;21.96;50.16;101605.44;685780;28;1202;-91
2023/10/08 01:31:10;;;;;;;9.48;6.00;;;;;;;21.99;50.12;101624.03;685815;28;1236;-92
2023/10/08 01:31:31;;;;;;;9.20;5.75;;;;;;;21.96;50.55;101608.09;691052;28;1244;-92
2023/10/08 01:31:53;;;;;;;8.10;5.30;;;;;;;21.98;50.29;101616.94;680269;29;1196;-90
2023/10/08 01:32:16;;;;;;;10.30;5.60;;;;;;;21.96;50.33;101609.00;683013;29;1311;-90
2023/10/08 01:32:36;;;;;;;10.30;5.80;;;;;;;21.91;50.06;101603.72;682869;29;1277;-92
2023/10/08 01:32:57;;;;;;;10.13;5.38;;;;;;;21.99;50.22;101614.28;680446;29;1149;-92
2023/10/08 01:33:20;;;;;;;7.90;4.60;;;;;;;21.97;50.16;101610.78;677451;29;1174;-92
2023/10/08 01:33:50;;;;;;;8.13;4.60;;;;;;;22.04;50.32;101622.22;680356;29;1209;-92
2023/10/08 01:34:15;;;;;;;9.20;5.57;;;;;;;21.98;50.35;101607.22;685581;28;1411;-92
2023/10/08 01:34:36;;;;;;;10.00;5.90;;;;;;;21.91;50.27;101601.06;688409;28;1320;-92
2023/10/08 01:34:59;;;;;;;9.30;5.57;;;;;;;22.03;50.18;101615.16;683217;28;1378;-92
2023/10/08 01:35:23;;;;;;;10.13;5.20;;;;;;;21.99;50.37;101605.41;679832;29;1399;-92
2023/10/08 01:35:43;;;;;;;11.98;5.13;;;;;;;21.99;50.45;101608.06;685720;28;1366;-93
2023/10/08 01:36:04;;;;;;;11.07;5.15;;;;;;;22.00;50.36;101609.88;680246;29;1173;-91
2023/10/08 01:36:25;;;;;;;11.27;5.25;;;;;;;21.97;50.46;101605.44;680272;29;1278;-91
2023/10/08 01:36:46;;;;;;;8.45;5.05;;;;;;;21.93;50.41;101611.66;675135;29;1151;-91
2023/10/08 01:37:09;;;;;;;9.10;5.43;;;;;;;21.96;50.51;101613.44;683432;28;1332;-92
2023/10/08 01:37:33;;;;;;;8.40;5.40;;;;;;;21.90;50.56;101596.63;682877;28;1957;-90
2023/10/08 01:37:56;;;;;;;8.60;5.40;;;;;;;21.96;50.69;101600.13;676409;29;1245;-91
2023/10/08 01:38:23;;;;;;;8.25;5.32;;;;;;;21.96;50.36;101592.16;677565;29;1400;-93
2023/10/08 01:38:49;;;;;;;9.63;5.78;;;;;;;21.98;50.74;101606.31;685939;28;1354;-92
2023/10/08 01:39:15;;;;;;;8.50;5.75;;;;;;;21.94;50.60;101596.63;688457;28;1211;-91
2023/10/08 01:39:38;;;;;;;8.73;5.20;;;;;;;21.94;50.54;101600.13;685545;28;1204;-91
2023/10/08 01:40:01;;;;;;;10.25;5.57;;;;;;;22.01;50.31;101611.63;682511;29;1229;-91
2023/10/08 01:40:22;;;;;;;11.38;5.80;;;;;;;21.99;50.37;101605.41;682978;29;1294;-91
2023/10/08 01:40:43;;;;;;;9.05;5.57;;;;;;;21.95;50.54;101601.03;677599;29;1205;-92
2023/10/08 01:41:10;;;;;;;8.02;5.28;;;;;;;22.03;50.53;101613.41;678683;29;1244;-91
2023/10/08 01:41:31;;;;;;;7.83;5.17;;;;;;;21.99;50.51;101602.75;679891;29;1287;-92
2023/10/08 01:41:52;;;;;;;8.27;5.30;;;;;;;22.03;50.60;101613.41;688589;28;1330;-89
2023/10/08 01:42:20;;;;;;;9.32;5.55;;;;;;;22.05;50.28;101603.63;680065;29;1142;-90
2023/10/08 01:42:41;;;;;;;9.23;5.40;;;;;;;22.04;50.42;101590.34;680227;29;1397;-90
2023/10/08 01:43:05;;;;;;;10.73;5.73;;;;;;;22.02;50.25;101592.13;684394;28;1251;-92
2023/10/08 01:43:27;;;;;;;8.43;5.20;;;;;;;22.04;50.49;101593.00;688298;28;1374;-90
2023/10/08 01:43:52;;;;;;;7.78;5.10;;;;;;;22.02;50.20;101581.50;688515;28;1209;-92
2023/10/08 01:44:13;;;;;;;6.88;4.93;;;;;;;22.02;50.35;101585.03;677813;29;1203;-91
2023/10/08 01:46:34;;;;;;;7.32;5.10;;;;;;;21.98;50.36;101587.72;688086;28;805;-91
2023/10/08 01:47:15;;;;;;;8.18;4.80;;;;;;;22.03;50.49;101605.41;685681;28;915;-91
2023/10/08 01:47:36;;;;;;;10.57;5.20;;;;;;;22.00;50.56;101593.94;683148;29;1392;-91
2023/10/08 01:47:57;;;;;;;12.02;5.63;;;;;;;22.01;50.37;101607.19;683221;28;1220;-92
2023/10/08 01:48:27;;;;;;;12.40;6.00;;;;;;;22.01;50.54;101595.69;680223;29;1199;-91
2023/10/08 01:48:53;;;;;;;9.35;5.55;;;;;;;22.02;50.57;101597.44;685714;28;1142;-92
2023/10/08 01:50:38;;;;;;;10.30;5.53;;;;;;;22.05;50.46;101602.72;684512;28;1201;-91
2023/10/08 01:51:01;;;;;;;7.57;5.13;;;;;;;22.00;50.43;101609.88;681080;28;1287;-89
2023/10/08 01:51:25;;;;;;;7.00;4.80;;;;;;;22.01;50.37;101601.00;680295;29;1212;-90
2023/10/08 01:51:53;;;;;;;6.90;4.80;;;;;;;22.08;50.42;101613.34;680319;29;1217;-91
2023/10/08 01:52:23;;;;;;;8.13;4.78;;;;;;;22.02;50.43;101608.06;685503;28;1351;-90
2023/10/08 01:53:10;;;;;;;9.55;5.00;;;;;;;22.08;50.42;101610.69;688577;28;1395;-89
2023/10/08 01:53:31;;;;;;;8.35;5.30;;;;;;;22.02;50.29;101608.94;686131;28;1230;-90
2023/10/08 01:53:55;;;;;;;12.38;5.10;;;;;;;21.97;50.30;101596.59;683042;29;1279;-92
2023/10/08 01:54:17;;;;;;;13.80;5.20;;;;;;;21.98;50.36;101598.34;677529;29;1140;-92
2023/10/08 01:54:38;;;;;;;13.65;5.00;;;;;;;22.02;50.41;101602.75;682529;29;1240;-92
2023/10/08 01:54:59;;;;;;;7.72;5.20;;;;;;;22.02;50.52;101597.44;683096;29;1267;-90
2023/10/08 01:55:21;;;;;;;8.60;5.40;;;;;;;22.07;50.17;101600.94;677787;29;1366;-90
2023/10/08 01:55:48;;;;;;;8.50;5.47;;;;;;;22.09;50.34;101611.56;680076;29;1320;-90
2023/10/08 01:56:10;;;;;;;10.65;5.88;;;;;;;21.97;50.58;101599.25;682986;29;1274;-90
2023/10/08 01:56:32;;;;;;;11.27;6.00;;;;;;;22.04;50.44;101617.81;680067;29;1299;-93
2023/10/08 01:56:52;;;;;;;11.95;6.28;;;;;;;22.00;50.25;101615.19;677863;29;1261;-92
2023/10/08 01:57:14;;;;;;;9.43;5.47;;;;;;;22.02;50.54;101613.41;682836;28;1312;-90
2023/10/08 01:57:36;;;;;;;8.27;5.38;;;;;;;22.03;50.31;101609.84;685471;28;1232;-90
2023/10/08 01:57:57;;;;;;;7.28;5.10;;;;;;;22.00;50.54;101605.41;680425;29;1412;-91
2023/10/08 01:58:18;;;;;;;7.30;5.38;;;;;;;22.05;50.29;101616.00;680271;29;1287;-90
2023/10/08 01:58:39;;;;;;;9.20;5.50;;;;;;;22.00;50.47;101609.88;675055;29;1170;-90
2023/10/08 01:59:00;;;;;;;8.77;5.27;;;;;;;21.97;50.32;101605.44;684283;28;1207;-93
2023/10/08 01:59:21;;;;;;;9.73;5.05;;;;;;;21.95;50.60;101611.66;684818;28;1213;-93
2023/10/08 01:59:44;;;;;;;8.37;4.87;;;;;;;21.98;50.58;101611.63;680539;29;1215;-92
2023/10/08 02:00:07;;;;;;;9.05;5.10;;;;;;;22.00;50.48;101615.19;682920;28;1379;-89
2023/10/08 02:00:33;;;;;;;11.48;5.25;;;;;;;21.99;50.46;101602.75;682773;29;1287;-90
2023/10/08 02:00:58;;;;;;;14.40;5.60;;;;;;;21.99;50.29;101597.44;677762;29;1268;-89
2023/10/08 02:01:20;;;;;;;13.13;5.80;;;;;;;21.96;50.42;101587.75;680057;28;1422;-91
2023/10/08 02:01:41;;;;;;;12.07;5.50;;;;;;;22.00;50.29;101608.06;685102;28;1224;-90
2023/10/08 02:02:04;;;;;;;13.30;5.70;;;;;;;21.98;50.46;101607.22;690618;28;1298;-91
2023/10/08 02:02:25;;;;;;;13.18;5.55;;;;;;;21.96;50.52;101616.09;682958;28;1263;-91
2023/10/08 02:02:47;;;;;;;10.38;5.35;;;;;;;21.99;50.46;101622.25;682929;28;1267;-90
2023/10/08 02:03:08;;;;;;;9.45;5.00;;;;;;;21.98;50.61;101619.59;684722;28;1225;-92
2023/10/08 02:03:29;;;;;;;8.82;5.35;;;;;;;21.93;50.50;101608.16;685091;28;1258;-90
2023/10/08 02:03:49;;;;;;;8.70;4.90;;;;;;;21.99;50.68;101621.38;677315;29;1240;-91
2023/10/08 02:04:12;;;;;;;8.63;5.07;;;;;;;21.98;50.80;101616.94;680078;29;1233;-91
2023/10/08 02:04:35;;;;;;;12.38;5.05;;;;;;;21.97;50.77;101610.78;682837;28;1331;-89
2023/10/08 02:04:55;;;;;;;13.30;5.30;;;;;;;21.95;50.58;101601.91;683320;28;1369;-90
2023/10/08 02:05:18;;;;;;;14.30;5.35;;;;;;;21.98;50.50;101609.88;682375;28;1272;-91
2023/10/08 02:05:41;;;;;;;9.35;4.82;;;;;;;22.01;50.66;101612.50;683005;28;1145;-92